Time;durP1;ratioP1;P1;durP2;ratioP2;P2;SDS_P1;SDS_P2;PMS_P1;PMS_P2;Temp;Humidity;BMP_temperature;BMP_pressure;BME280_temperature;BME280_humidity;BME280_pressure;Samples;Min_cycle;Max_cycle;Signal;HPM_P1;HPM_P2
2022/11/22 00:01:22;;;;;;;1999.90;999.90;;;1.10;99.90;;;;;;5080932;28;20461;-67
2022/11/22 00:03:48;;;;;;;1999.90;999.90;;;1.10;99.90;;;;;;5082493;28;20465;-67
2022/11/22 00:06:15;;;;;;;1999.90;999.90;;;1.10;99.90;;;;;;5080780;28;20488;-68
2022/11/22 00:08:43;;;;;;;1999.90;999.90;;;1.10;99.90;;;;;;5082784;28;20460;-68
2022/11/22 00:11:10;;;;;;;1999.90;999.90;;;1.10;99.90;;;;;;5081364;28;20456;-67
2022/11/22 00:13:37;;;;;;;1999.90;999.90;;;1.10;99.90;;;;;;5069254;28;20465;-67
2022/11/22 00:16:04;;;;;;;1999.90;999.90;;;1.10;99.90;;;;;;5063784;28;21115;-67
2022/11/22 00:18:31;;;;;;;1999.90;999.90;;;1.20;99.90;;;;;;5065584;28;20484;-66
2022/11/22 00:21:04;;;;;;;1999.90;999.90;;;1.10;99.90;;;;;;5067106;28;20471;-67
2022/11/22 00:23:31;;;;;;;1999.90;999.90;;;1.10;99.90;;;;;;5064605;28;20465;-67
2022/11/22 00:25:59;;;;;;;1999.90;999.90;;;1.10;99.90;;;;;;5064960;28;20493;-66
2022/11/22 00:28:26;;;;;;;1999.90;999.90;;;1.20;99.90;;;;;;5065330;28;20476;-67
2022/11/22 00:30:53;;;;;;;1999.90;999.90;;;1.10;99.90;;;;;;5067094;28;20465;-66
2022/11/22 00:33:19;;;;;;;1999.90;999.90;;;1.10;99.90;;;;;;5065450;28;20457;-66
2022/11/22 00:35:46;;;;;;;1999.90;999.90;;;1.10;99.90;;;;;;5065082;28;20488;-65
2022/11/22 00:38:13;;;;;;;1999.90;999.90;;;1.10;99.90;;;;;;5063660;28;20465;-65
2022/11/22 00:40:40;;;;;;;1999.90;999.90;;;1.10;99.90;;;;;;5063861;28;20461;-66
2022/11/22 00:43:08;;;;;;;1999.90;999.90;;;1.10;99.90;;;;;;5064900;28;20465;-66
2022/11/22 00:45:35;;;;;;;1999.90;999.90;;;1.10;99.90;;;;;;5064805;28;20549;-68
2022/11/22 00:48:01;;;;;;;1999.90;999.90;;;1.20;99.90;;;;;;5065208;28;20461;-67
2022/11/22 00:50:28;;;;;;;1999.90;999.90;;;1.10;99.90;;;;;;5064000;28;20465;-65
2022/11/22 00:52:55;;;;;;;1999.90;999.90;;;1.10;99.90;;;;;;5063412;28;20461;-67
2022/11/22 00:55:21;;;;;;;1999.90;999.90;;;1.00;99.90;;;;;;5062204;28;20481;-66
2022/11/22 00:57:48;;;;;;;1999.90;999.90;;;1.10;99.90;;;;;;5066568;28;20458;-65
2022/11/22 01:00:17;;;;;;;1999.90;999.90;;;1.00;99.90;;;;;;5065130;28;20471;-67
2022/11/22 01:02:44;;;;;;;1999.90;999.90;;;1.00;99.90;;;;;;5066044;28;20484;-67
2022/11/22 01:05:11;;;;;;;1999.90;999.90;;;1.10;99.90;;;;;;5062755;28;20488;-66
2022/11/22 01:07:38;;;;;;;1999.90;999.90;;;1.00;99.90;;;;;;5065273;28;20468;-66
2022/11/22 01:10:05;;;;;;;1999.90;999.90;;;1.00;99.90;;;;;;5063203;28;20476;-67
2022/11/22 01:12:32;;;;;;;1999.90;999.90;;;0.90;99.90;;;;;;5065509;28;20472;-66
2022/11/22 01:14:59;;;;;;;1999.90;999.90;;;0.90;99.90;;;;;;5063498;28;21516;-67
2022/11/22 01:17:27;;;;;;;1999.90;999.90;;;0.90;99.90;;;;;;5064513;28;20479;-66
2022/11/22 01:19:54;;;;;;;1999.90;999.90;;;0.90;99.90;;;;;;5064783;28;20458;-66
2022/11/22 01:22:21;;;;;;;1999.90;999.90;;;0.90;99.90;;;;;;5064565;28;20480;-68
2022/11/22 01:24:48;;;;;;;1999.90;999.90;;;0.80;99.90;;;;;;5063009;28;20465;-66
2022/11/22 01:27:14;;;;;;;1999.90;999.90;;;0.80;99.90;;;;;;5063872;28;20824;-66
2022/11/22 01:29:41;;;;;;;1999.90;999.90;;;0.80;99.90;;;;;;5063793;28;20839;-67
2022/11/22 01:32:08;;;;;;;1999.90;999.90;;;0.80;99.90;;;;;;5064222;28;20472;-66
2022/11/22 01:34:36;;;;;;;1999.90;999.90;;;0.80;99.90;;;;;;5063483;28;20473;-66
2022/11/22 01:37:03;;;;;;;1999.90;999.90;;;0.70;99.90;;;;;;5064540;28;20457;-66
2022/11/22 01:39:30;;;;;;;1999.90;999.90;;;0.70;99.90;;;;;;5063121;28;20460;-66
2022/11/22 01:41:56;;;;;;;1999.90;999.90;;;0.70;99.90;;;;;;5064564;28;20468;-68
2022/11/22 01:44:25;;;;;;;1999.90;999.90;;;0.70;99.90;;;;;;5063647;28;20464;-67
2022/11/22 01:46:56;;;;;;;1999.90;999.90;;;0.60;99.90;;;;;;5064774;28;20489;-67
2022/11/22 01:49:30;;;;;;;1999.90;999.90;;;0.60;99.90;;;;;;5064941;28;21134;-66
2022/11/22 01:52:02;;;;;;;1999.90;999.90;;;0.70;99.90;;;;;;5065573;28;20967;-67
2022/11/22 01:54:32;;;;;;;1999.90;999.90;;;0.60;99.90;;;;;;5064593;28;20981;-68
2022/11/22 01:57:02;;;;;;;1999.90;999.90;;;0.60;99.90;;;;;;5066123;28;20473;-66
2022/11/22 01:59:31;;;;;;;1999.90;999.90;;;0.60;99.90;;;;;;5068144;28;20487;-66
2022/11/22 02:01:59;;;;;;;1999.90;999.90;;;0.60;99.90;;;;;;5065652;28;20871;-68
2022/11/22 02:04:27;;;;;;;1999.90;999.90;;;0.60;99.90;;;;;;5067387;28;20457;-67
2022/11/22 02:07:02;;;;;;;1999.90;999.90;;;0.70;99.90;;;;;;5067701;28;20499;-65
2022/11/22 02:09:29;;;;;;;1999.90;999.90;;;0.60;99.90;;;;;;5065352;28;20465;-67
2022/11/22 02:12:00;;;;;;;1999.90;999.90;;;0.60;99.90;;;;;;5066442;28;20984;-65
2022/11/22 02:14:28;;;;;;;1999.90;999.90;;;0.60;99.90;;;;;;5066018;28;20465;-68
2022/11/22 02:16:55;;;;;;;1999.90;999.90;;;0.70;99.90;;;;;;5066823;28;20999;-66
2022/11/22 02:19:32;;;;;;;1999.90;999.90;;;0.70;99.90;;;;;;5066786;28;20464;-67
2022/11/22 02:22:06;;;;;;;1999.90;999.90;;;0.70;99.90;;;;;;5068052;28;20991;-66
2022/11/22 02:24:39;;;;;;;1999.90;999.90;;;0.60;99.90;;;;;;5067522;28;20463;-67
2022/11/22 02:27:07;;;;;;;1999.90;999.90;;;0.60;99.90;;;;;;5071224;28;20476;-66
2022/11/22 02:29:35;;;;;;;1999.90;999.90;;;0.70;99.90;;;;;;5068393;28;20469;-67
2022/11/22 02:32:02;;;;;;;1999.90;999.90;;;0.70;99.90;;;;;;5069003;28;20468;-67
2022/11/22 02:34:28;;;;;;;1999.90;999.90;;;0.70;99.90;;;;;;5066669;28;20464;-67
2022/11/22 02:36:55;;;;;;;1999.90;999.90;;;0.70;99.90;;;;;;5066823;28;20483;-65
2022/11/22 02:39:29;;;;;;;1999.90;999.90;;;0.70;99.90;;;;;;5066885;28;21850;-66
2022/11/22 02:41:56;;;;;;;1999.90;999.90;;;0.70;99.90;;;;;;5067212;28;22666;-66
2022/11/22 02:44:25;;;;;;;1999.90;999.90;;;0.70;99.90;;;;;;5066459;28;20495;-66
2022/11/22 02:46:54;;;;;;;1999.90;999.90;;;0.70;99.90;;;;;;5066133;28;21096;-66
2022/11/22 02:49:22;;;;;;;1999.90;999.90;;;0.60;99.90;;;;;;5066484;28;20461;-67
2022/11/22 02:51:50;;;;;;;1999.90;999.90;;;0.60;99.90;;;;;;5068508;28;20520;-66
2022/11/22 02:54:17;;;;;;;1999.90;999.90;;;0.60;99.90;;;;;;5066540;28;20469;-67
2022/11/22 02:56:44;;;;;;;1999.90;999.90;;;0.60;99.90;;;;;;5063509;28;20477;-67
2022/11/22 02:59:11;;;;;;;1999.90;999.90;;;0.60;99.90;;;;;;5066981;28;20464;-67
2022/11/22 03:01:40;;;;;;;1999.90;999.90;;;0.60;99.90;;;;;;5065946;28;20476;-65
2022/11/22 03:04:07;;;;;;;1999.90;999.90;;;0.60;99.90;;;;;;5066445;28;20545;-66
2022/11/22 03:06:33;;;;;;;1999.90;999.90;;;0.70;99.90;;;;;;5064190;28;20489;-66
2022/11/22 03:09:00;;;;;;;1999.90;999.90;;;0.70;99.90;;;;;;5065731;28;20460;-65
2022/11/22 03:11:27;;;;;;;1999.90;999.90;;;0.70;99.90;;;;;;5064807;28;20457;-68
2022/11/22 03:13:54;;;;;;;1999.90;999.90;;;0.70;99.90;;;;;;5067345;28;20475;-65
2022/11/22 03:16:21;;;;;;;1999.90;999.90;;;0.70;99.90;;;;;;5064747;28;20483;-66
2022/11/22 03:18:49;;;;;;;1999.90;999.90;;;0.80;99.90;;;;;;5067419;28;20476;-66
2022/11/22 03:21:15;;;;;;;1999.90;999.90;;;0.80;99.90;;;;;;5066821;28;20457;-65
2022/11/22 03:23:42;;;;;;;1999.90;999.90;;;0.80;99.90;;;;;;5068973;28;20517;-66
2022/11/22 03:26:10;;;;;;;1999.90;999.90;;;0.80;99.90;;;;;;5067242;28;20480;-67
2022/11/22 03:28:37;;;;;;;1999.90;999.90;;;0.90;99.90;;;;;;5065408;28;20461;-66
2022/11/22 03:31:06;;;;;;;1999.90;999.90;;;0.90;99.90;;;;;;5067867;28;20460;-67
2022/11/22 03:33:33;;;;;;;1999.90;999.90;;;0.90;99.90;;;;;;5065598;28;20466;-66
2022/11/22 03:36:01;;;;;;;1999.90;999.90;;;1.00;99.90;;;;;;5066502;28;20476;-65
2022/11/22 03:38:28;;;;;;;1999.90;999.90;;;1.10;99.90;;;;;;5064598;28;20465;-67
2022/11/22 03:40:55;;;;;;;1999.90;999.90;;;1.20;99.90;;;;;;5065493;28;20469;-66
2022/11/22 03:43:22;;;;;;;1999.90;999.90;;;1.30;99.90;;;;;;5065388;28;20457;-66
2022/11/22 03:45:49;;;;;;;1999.90;999.90;;;1.40;99.90;;;;;;5066334;28;20489;-65
2022/11/22 03:48:16;;;;;;;1999.90;999.90;;;1.40;99.90;;;;;;5067582;28;20461;-67
2022/11/22 03:50:43;;;;;;;1999.90;999.90;;;1.50;99.90;;;;;;5067416;28;20460;-66
2022/11/22 03:53:11;;;;;;;1999.90;999.90;;;1.50;99.90;;;;;;5066374;28;20459;-66
2022/11/22 03:55:38;;;;;;;1999.90;999.90;;;1.50;99.90;;;;;;5062710;28;20485;-65
2022/11/22 03:58:05;;;;;;;1999.90;999.90;;;1.50;99.90;;;;;;5064822;28;20460;-66
2022/11/22 04:00:32;;;;;;;1999.90;999.90;;;1.50;99.90;;;;;;5065258;28;20844;-68
2022/11/22 04:02:59;;;;;;;1999.90;999.90;;;1.10;99.90;;;;;;5067257;28;21083;-66
2022/11/22 04:05:26;;;;;;;1999.90;999.90;;;1.50;99.90;;;;;;5064870;28;21786;-67
2022/11/22 04:07:55;;;;;;;1999.90;999.90;;;1.50;99.90;;;;;;5063686;28;21483;-64
2022/11/22 04:10:23;;;;;;;1999.90;999.90;;;1.50;99.90;;;;;;5065579;28;20497;-67
2022/11/22 04:12:50;;;;;;;1999.90;999.90;;;1.50;99.90;;;;;;5064406;28;20992;-67
2022/11/22 04:15:16;;;;;;;1999.90;999.90;;;1.50;99.90;;;;;;5093379;22;20481;-66
2022/11/22 04:17:46;;;;;;;1999.90;999.90;;;1.60;99.90;;;;;;5036146;28;20467;-65
2022/11/22 04:23:01;;;;;;;1999.90;999.90;;;1.50;99.90;;;;;;5038553;28;20655;-68
2022/11/22 04:25:31;;;;;;;1999.90;999.90;;;1.60;99.90;;;;;;5038662;28;20465;-67
2022/11/22 04:27:58;;;;;;;1999.90;999.90;;;1.50;99.90;;;;;;5036679;28;20859;-66
2022/11/22 04:32:44;;;;;;;1999.90;999.90;;;1.50;99.90;;;;;;5037030;28;21005;-66
2022/11/22 04:33:13;;;;;;;1999.90;999.90;;;1.50;99.90;;;;;;5037875;28;20513;-68
2022/11/22 04:35:40;;;;;;;1999.90;999.90;;;1.50;99.90;;;;;;5038463;28;21129;-64
2022/11/22 04:38:07;;;;;;;1999.90;999.90;;;1.50;99.90;;;;;;5039048;28;20492;-67
2022/11/22 04:40:36;;;;;;;1999.90;999.90;;;1.50;99.90;;;;;;5037781;28;20492;-68
2022/11/22 04:45:48;;;;;;;1999.90;999.90;;;1.50;99.90;;;;;;5037287;28;20473;-66
2022/11/22 04:48:15;;;;;;;1999.90;999.90;;;1.50;99.90;;;;;;5037553;28;20473;-67
2022/11/22 04:53:28;;;;;;;1999.90;999.90;;;1.40;99.90;;;;;;5039057;28;20968;-67
2022/11/22 04:55:57;;;;;;;1999.90;999.90;;;1.40;99.90;;;;;;5035532;28;20611;-67
2022/11/22 04:58:24;;;;;;;1999.90;999.90;;;1.40;99.90;;;;;;5036580;28;20466;-64
2022/11/22 05:00:51;;;;;;;1999.90;999.90;;;1.30;99.90;;;;;;5038336;28;20470;-68
2022/11/22 05:03:18;;;;;;;1999.90;999.90;;;1.30;99.90;;;;;;5038567;28;20979;-65
2022/11/22 05:05:45;;;;;;;1999.90;999.90;;;1.20;99.90;;;;;;5036422;28;20524;-67
2022/11/22 05:08:12;;;;;;;1999.90;999.90;;;1.20;99.90;;;;;;5038956;28;20486;-66
2022/11/22 05:10:58;;;;;;;1999.90;999.90;;;1.10;99.90;;;;;;5038249;28;20462;-65
2022/11/22 05:13:29;;;;;;;1999.90;999.90;;;1.10;99.90;;;;;;5036427;28;20512;-65
2022/11/22 05:15:57;;;;;;;1999.90;999.90;;;1.20;99.90;;;;;;5037101;28;20490;-66
2022/11/22 05:18:25;;;;;;;1999.90;999.90;;;1.20;99.90;;;;;;5037638;28;20900;-66
2022/11/22 05:20:52;;;;;;;1999.90;999.90;;;1.20;99.90;;;;;;5048539;28;20458;-71
2022/11/22 05:26:04;;;;;;;1999.90;999.90;;;1.20;99.90;;;;;;5052660;28;20469;-67
2022/11/22 05:28:34;;;;;;;1999.90;999.90;;;1.30;99.90;;;;;;5057656;28;20469;-67
2022/11/22 05:31:07;;;;;;;1999.90;999.90;;;1.30;99.90;;;;;;5060519;28;20465;-67
2022/11/22 05:33:35;;;;;;;1999.90;999.90;;;1.30;99.90;;;;;;5059778;28;20891;-63
2022/11/22 05:36:03;;;;;;;1999.90;999.90;;;1.30;99.90;;;;;;5040520;28;20501;-69
2022/11/22 05:38:29;;;;;;;1999.90;999.90;;;1.40;99.90;;;;;;5040437;28;20466;-64
2022/11/22 05:40:56;;;;;;;1999.90;999.90;;;1.30;99.90;;;;;;5040758;28;20473;-64
2022/11/22 05:43:23;;;;;;;1999.90;999.90;;;1.40;99.90;;;;;;5041893;28;20849;-65
2022/11/22 05:45:51;;;;;;;1999.90;999.90;;;1.40;99.90;;;;;;5042111;28;20478;-66
2022/11/22 05:48:18;;;;;;;1999.90;999.90;;;1.40;99.90;;;;;;5041230;28;20485;-67
2022/11/22 05:50:45;;;;;;;1999.90;999.90;;;1.40;99.90;;;;;;5040552;28;20474;-67
2022/11/22 05:53:12;;;;;;;1999.90;999.90;;;1.40;99.90;;;;;;5042958;28;20809;-65
2022/11/22 05:55:38;;;;;;;1999.90;999.90;;;1.40;99.90;;;;;;5038509;28;21012;-66
2022/11/22 05:58:05;;;;;;;1999.90;999.90;;;1.40;99.90;;;;;;5041518;28;20986;-67
2022/11/22 06:00:32;;;;;;;1999.90;999.90;;;1.50;99.90;;;;;;5040168;28;20466;-66
2022/11/22 06:03:04;;;;;;;1999.90;999.90;;;1.50;99.90;;;;;;5042019;28;20473;-68
2022/11/22 06:05:31;;;;;;;1999.90;999.90;;;1.50;99.90;;;;;;5039829;28;20493;-65
2022/11/22 06:07:59;;;;;;;1999.90;999.90;;;1.40;99.90;;;;;;5040463;28;20482;-66
2022/11/22 06:10:26;;;;;;;1999.90;999.90;;;1.50;99.90;;;;;;5039792;28;20465;-65
2022/11/22 06:12:53;;;;;;;1999.90;999.90;;;1.50;99.90;;;;;;5040934;28;20458;-69
2022/11/22 06:15:20;;;;;;;1999.90;999.90;;;1.50;99.90;;;;;;5039368;28;22593;-65
2022/11/22 06:17:48;;;;;;;1999.90;999.90;;;1.60;99.90;;;;;;5040475;28;20465;-68
2022/11/22 06:20:16;;;;;;;1999.90;999.90;;;1.50;99.90;;;;;;5041290;28;20830;-67
2022/11/22 06:22:43;;;;;;;1999.90;999.90;;;1.50;99.90;;;;;;5040253;28;20454;-67
2022/11/22 06:25:10;;;;;;;1999.90;999.90;;;1.50;99.90;;;;;;5038766;28;20502;-68
2022/11/22 06:27:37;;;;;;;1999.90;999.90;;;1.50;99.90;;;;;;5039143;28;20510;-68
2022/11/22 06:30:04;;;;;;;1999.90;999.90;;;1.50;99.90;;;;;;5040974;28;20466;-64
2022/11/22 06:32:33;;;;;;;1999.90;999.90;;;1.50;99.90;;;;;;5038648;28;20453;-65
2022/11/22 06:35:01;;;;;;;1999.90;999.90;;;1.50;99.90;;;;;;5037369;28;20490;-64
2022/11/22 06:37:29;;;;;;;1999.90;999.90;;;1.60;99.90;;;;;;5037804;28;20475;-65
2022/11/22 06:39:56;;;;;;;1999.90;999.90;;;1.60;99.90;;;;;;5048078;28;21018;-67
2022/11/22 06:42:23;;;;;;;1999.90;999.90;;;1.60;99.90;;;;;;5054515;28;20457;-67
2022/11/22 06:44:49;;;;;;;1999.90;999.90;;;1.70;99.90;;;;;;5056601;28;20465;-67
2022/11/22 06:47:17;;;;;;;1999.90;999.90;;;1.70;99.90;;;;;;5060189;28;20482;-67
2022/11/22 06:49:44;;;;;;;1999.90;999.90;;;1.70;99.90;;;;;;5054740;28;20458;-67
2022/11/22 06:52:11;;;;;;;1999.90;999.90;;;1.70;99.90;;;;;;5061057;28;20469;-67
2022/11/22 06:54:39;;;;;;;1999.90;999.90;;;1.80;99.90;;;;;;5043320;28;20466;-67
2022/11/22 06:57:05;;;;;;;1999.90;999.90;;;1.80;99.90;;;;;;5038745;28;20482;-68
2022/11/22 06:59:32;;;;;;;1999.90;999.90;;;1.90;99.90;;;;;;5038890;28;21477;-67
2022/11/22 07:01:59;;;;;;;1999.90;999.90;;;1.90;99.90;;;;;;5040418;28;20998;-67
2022/11/22 07:04:26;;;;;;;1999.90;999.90;;;1.90;99.90;;;;;;5038959;28;20590;-68
2022/11/22 07:06:52;;;;;;;1999.90;999.90;;;1.90;99.90;;;;;;5038771;28;20490;-69
2022/11/22 07:09:19;;;;;;;1999.90;999.90;;;1.90;99.90;;;;;;5038645;28;20459;-64
2022/11/22 07:11:47;;;;;;;1999.90;999.90;;;1.90;99.90;;;;;;5051547;28;20858;-69
2022/11/22 07:14:14;;;;;;;1999.90;999.90;;;1.90;99.90;;;;;;5058466;28;20462;-71
2022/11/22 07:16:41;;;;;;;1999.90;999.90;;;1.90;99.90;;;;;;5058604;28;20535;-67
2022/11/22 07:19:08;;;;;;;1999.90;999.90;;;1.90;99.90;;;;;;5050887;28;20470;-66
2022/11/22 07:21:36;;;;;;;1999.90;999.90;;;2.00;99.90;;;;;;5053868;28;20462;-66
2022/11/22 07:24:05;;;;;;;1999.90;999.90;;;2.00;99.90;;;;;;5066762;28;20544;-67
2022/11/22 07:26:32;;;;;;;1999.90;999.90;;;2.00;99.90;;;;;;5055791;28;20478;-65
2022/11/22 07:29:00;;;;;;;1999.90;999.90;;;2.10;99.90;;;;;;5059804;28;20460;-67
2022/11/22 07:31:27;;;;;;;1999.90;999.90;;;2.10;99.90;;;;;;5055805;28;20946;-66
2022/11/22 07:33:55;;;;;;;1999.90;999.90;;;2.30;99.90;;;;;;5047567;28;20470;-67
2022/11/22 07:36:22;;;;;;;1999.90;999.90;;;2.10;99.90;;;;;;5063056;28;20481;-66
2022/11/22 07:38:50;;;;;;;1999.90;999.90;;;2.20;99.90;;;;;;5050662;28;21053;-67
2022/11/22 07:41:18;;;;;;;1999.90;999.90;;;2.20;99.90;;;;;;5050960;28;20600;-65
2022/11/22 07:43:45;;;;;;;1999.90;999.90;;;2.30;99.90;;;;;;5051493;28;20462;-67
2022/11/22 07:46:21;;;;;;;1999.90;999.90;;;2.40;99.90;;;;;;5057960;28;20482;-68
2022/11/22 07:48:49;;;;;;;1999.90;999.90;;;2.50;99.90;;;;;;5058703;28;20490;-67
2022/11/22 07:51:16;;;;;;;1999.90;999.90;;;2.50;99.90;;;;;;5061635;28;20559;-68
2022/11/22 07:53:42;;;;;;;1999.90;999.90;;;2.50;99.90;;;;;;5054433;28;20458;-68
2022/11/22 07:56:09;;;;;;;1999.90;999.90;;;2.50;99.90;;;;;;5047077;28;20483;-68
2022/11/22 07:58:37;;;;;;;1999.90;999.90;;;2.60;99.90;;;;;;5051725;28;20855;-69
2022/11/22 08:01:08;;;;;;;1999.90;999.90;;;2.60;99.90;;;;;;5050368;28;20466;-69
2022/11/22 08:03:37;;;;;;;1999.90;999.90;;;2.40;99.90;;;;;;5051058;28;20465;-68
2022/11/22 08:06:06;;;;;;;1999.90;999.90;;;2.20;99.90;;;;;;5050165;28;20486;-66
2022/11/22 08:08:33;;;;;;;1999.90;999.90;;;2.30;99.90;;;;;;5044922;28;20509;-68
2022/11/22 08:11:00;;;;;;;1999.90;999.90;;;2.30;99.90;;;;;;5048707;28;20473;-67
2022/11/22 08:13:28;;;;;;;1999.90;999.90;;;2.40;99.90;;;;;;5051852;28;20867;-68
2022/11/22 08:15:55;;;;;;;1999.90;999.90;;;2.40;99.90;;;;;;5049382;28;21029;-69
2022/11/22 08:18:22;;;;;;;1999.90;999.90;;;2.50;99.90;;;;;;5049262;28;20458;-68
2022/11/22 08:20:50;;;;;;;1999.90;999.90;;;2.40;99.90;;;;;;5050574;28;20458;-66
2022/11/22 08:23:17;;;;;;;1999.90;999.90;;;2.30;99.90;;;;;;5053562;28;20458;-67
2022/11/22 08:25:44;;;;;;;1999.90;999.90;;;2.30;99.90;;;;;;5046957;28;21006;-70
2022/11/22 08:28:11;;;;;;;1999.90;999.90;;;2.20;99.90;;;;;;5050185;28;20477;-68
2022/11/22 08:30:38;;;;;;;1999.90;999.90;;;2.30;99.90;;;;;;5051092;28;20469;-68
2022/11/22 08:33:04;;;;;;;1999.90;999.90;;;2.30;99.90;;;;;;5050619;28;20459;-67
2022/11/22 08:35:31;;;;;;;1999.90;999.90;;;2.30;99.90;;;;;;5050737;28;20454;-69
2022/11/22 08:37:59;;;;;;;1999.90;999.90;;;2.30;99.90;;;;;;5048916;28;20454;-68
2022/11/22 08:40:26;;;;;;;1999.90;999.90;;;2.30;99.90;;;;;;5047569;28;20463;-65
2022/11/22 08:42:54;;;;;;;1999.90;999.90;;;2.40;99.90;;;;;;5049438;28;20478;-68
2022/11/22 08:45:21;;;;;;;1999.90;999.90;;;2.40;99.90;;;;;;5049982;28;20485;-68
2022/11/22 08:47:48;;;;;;;1999.90;999.90;;;2.40;99.90;;;;;;5049751;28;20485;-67
2022/11/22 08:50:17;;;;;;;1999.90;999.90;;;2.60;99.90;;;;;;5050773;28;20468;-67
2022/11/22 08:52:43;;;;;;;1999.90;999.90;;;2.70;99.90;;;;;;5048930;28;20465;-69
2022/11/22 08:55:11;;;;;;;1999.90;999.90;;;2.80;99.90;;;;;;5046908;28;20462;-68
2022/11/22 08:57:38;;;;;;;1999.90;999.90;;;2.90;99.90;;;;;;5048395;28;20481;-68
2022/11/22 09:00:06;;;;;;;1999.90;999.90;;;2.80;99.90;;;;;;5051625;28;20465;-67
2022/11/22 09:02:33;;;;;;;1999.90;999.90;;;2.70;99.90;;;;;;5053363;28;20519;-66
2022/11/22 09:05:00;;;;;;;1999.90;999.90;;;2.70;99.90;;;;;;5050329;28;20462;-68
2022/11/22 09:07:28;;;;;;;1999.90;999.90;;;2.60;99.90;;;;;;5052370;28;20494;-66
2022/11/22 09:09:55;;;;;;;1999.90;999.90;;;2.70;99.90;;;;;;5045566;28;20476;-67
2022/11/22 09:12:23;;;;;;;1999.90;999.90;;;2.90;99.90;;;;;;5049195;28;20872;-69
2022/11/22 09:14:49;;;;;;;1999.90;999.90;;;3.00;99.90;;;;;;5049316;28;20458;-69
2022/11/22 09:17:16;;;;;;;1999.90;999.90;;;3.00;99.90;;;;;;5049251;28;20572;-68
2022/11/22 09:19:43;;;;;;;1999.90;999.90;;;3.00;99.90;;;;;;5049684;28;20458;-69
2022/11/22 09:22:10;;;;;;;1999.90;999.90;;;3.00;99.90;;;;;;5051377;28;20468;-67
2022/11/22 09:24:36;;;;;;;1999.90;999.90;;;3.10;99.90;;;;;;5046208;28;20477;-68
2022/11/22 09:27:03;;;;;;;1999.90;999.90;;;3.20;99.90;;;;;;5052341;28;20486;-69
2022/11/22 09:29:31;;;;;;;1999.90;999.90;;;3.40;99.90;;;;;;5049379;28;22094;-68
2022/11/22 09:31:58;;;;;;;1999.90;999.90;;;3.40;99.90;;;;;;5050258;28;20465;-69
2022/11/22 09:34:25;;;;;;;1999.90;999.90;;;3.50;99.90;;;;;;5042310;28;20459;-66
2022/11/22 09:36:52;;;;;;;1999.90;999.90;;;3.40;99.90;;;;;;5049423;28;20489;-69
2022/11/22 09:39:18;;;;;;;1999.90;999.90;;;3.50;99.90;;;;;;5047465;28;20462;-68
2022/11/22 09:42:09;;;;;;;1999.90;999.90;;;3.50;99.90;;;;;;5048108;28;20458;-68
2022/11/22 09:45:01;;;;;;;1999.90;999.90;;;3.40;99.90;;;;;;5044625;28;20493;-69
2022/11/22 09:47:36;;;;;;;1999.90;999.90;;;3.40;99.90;;;;;;5051790;28;20480;-67
2022/11/22 09:50:13;;;;;;;1999.90;999.90;;;3.50;99.90;;;;;;5047751;28;20473;-69
2022/11/22 09:52:43;;;;;;;1999.90;999.90;;;3.60;99.90;;;;;;5045689;28;20450;-68
2022/11/22 09:55:19;;;;;;;1999.90;999.90;;;3.60;99.90;;;;;;5045201;28;20980;-67
2022/11/22 09:57:49;;;;;;;1999.90;999.90;;;3.50;99.90;;;;;;5049482;28;20454;-68
2022/11/22 10:00:21;;;;;;;1999.90;999.90;;;3.60;99.90;;;;;;5049427;28;20549;-68
2022/11/22 10:02:54;;;;;;;1999.90;999.90;;;3.70;99.90;;;;;;5050476;28;21016;-69
2022/11/22 10:05:24;;;;;;;1999.90;999.90;;;3.70;99.90;;;;;;5051035;28;20464;-69
2022/11/22 10:07:57;;;;;;;1999.90;999.90;;;3.80;99.90;;;;;;5048148;28;21144;-68
2022/11/22 10:10:29;;;;;;;1999.90;999.90;;;4.00;99.90;;;;;;5046398;28;20458;-68
2022/11/22 10:13:01;;;;;;;1999.90;999.90;;;4.00;99.90;;;;;;5049645;28;20462;-68
2022/11/22 10:15:35;;;;;;;1999.90;999.90;;;3.90;99.90;;;;;;5049366;28;20465;-69
2022/11/22 10:18:10;;;;;;;1999.90;999.90;;;3.80;99.90;;;;;;5081328;22;20497;-67
2022/11/22 10:20:40;;;;;;;1999.90;999.90;;;3.80;99.90;;;;;;5059038;28;20460;-67
2022/11/22 10:23:14;;;;;;;1999.90;999.90;;;3.80;99.90;;;;;;5059773;28;20492;-66
2022/11/22 10:25:46;;;;;;;1999.90;999.90;;;3.90;99.90;;;;;;5059558;28;20483;-65
2022/11/22 10:28:17;;;;;;;1999.90;999.90;;;3.90;99.90;;;;;;5059716;28;20482;-66
2022/11/22 10:30:52;;;;;;;1999.90;999.90;;;3.90;99.90;;;;;;5061072;28;20453;-66
2022/11/22 10:33:25;;;;;;;1999.90;999.90;;;3.90;99.90;;;;;;5061060;28;20468;-67
2022/11/22 10:36:04;;;;;;;1999.90;999.90;;;4.10;99.90;;;;;;5059696;28;21987;-66
2022/11/22 10:38:47;;;;;;;1999.90;999.90;;;4.20;99.90;;;;;;5061771;28;20480;-67
2022/11/22 10:41:25;;;;;;;1999.90;999.90;;;4.00;99.90;;;;;;5060750;28;20453;-66
2022/11/22 10:44:06;;;;;;;1999.90;999.90;;;4.00;99.90;;;;;;5060480;28;20461;-65
2022/11/22 10:46:43;;;;;;;1999.90;999.90;;;4.10;99.90;;;;;;5063675;28;20960;-66
2022/11/22 10:49:20;;;;;;;1999.90;999.90;;;4.10;99.90;;;;;;5073962;28;20491;-66
2022/11/22 10:51:56;;;;;;;1999.90;999.90;;;4.10;99.90;;;;;;5072136;28;20474;-66
2022/11/22 10:54:30;;;;;;;1999.90;999.90;;;4.10;99.90;;;;;;5077525;28;20463;-66
2022/11/22 10:57:06;;;;;;;1999.90;999.90;;;4.20;99.90;;;;;;5084601;28;20545;-66
2022/11/22 10:59:47;;;;;;;1999.90;999.90;;;4.20;99.90;;;;;;5094204;28;20831;-66
2022/11/22 11:02:36;;;;;;;1999.90;999.90;;;4.10;99.90;;;;;;5068452;28;20970;-67
2022/11/22 11:05:07;;;;;;;1999.90;999.90;;;4.10;99.90;;;;;;5056844;28;20469;-66
2022/11/22 11:07:35;;;;;;;1999.90;999.90;;;4.20;99.90;;;;;;5066873;28;20477;-66
2022/11/22 11:10:05;;;;;;;1999.90;999.90;;;4.30;99.90;;;;;;5070254;28;20464;-66
2022/11/22 11:12:39;;;;;;;1999.90;999.90;;;4.30;99.90;;;;;;5071658;28;20837;-66
2022/11/22 11:15:16;;;;;;;1999.90;999.90;;;4.40;99.90;;;;;;5069819;28;20457;-66
2022/11/22 11:17:47;;;;;;;1999.90;999.90;;;4.40;99.90;;;;;;5074806;28;20488;-67
2022/11/22 11:20:25;;;;;;;1999.90;999.90;;;4.50;99.90;;;;;;5073313;28;20460;-64
2022/11/22 11:22:51;;;;;;;1999.90;999.90;;;4.60;99.90;;;;;;5074998;28;20457;-63
2022/11/22 11:25:29;;;;;;;1999.90;999.90;;;4.80;99.90;;;;;;5062311;28;20459;-64
2022/11/22 11:27:59;;;;;;;1999.90;999.90;;;4.90;99.90;;;;;;5070967;28;20476;-64
2022/11/22 11:30:26;;;;;;;1999.90;999.90;;;4.80;99.90;;;;;;5072041;28;20528;-65
2022/11/22 11:32:56;;;;;;;1999.90;999.90;;;4.70;99.90;;;;;;5073106;28;20452;-65
2022/11/22 11:35:27;;;;;;;1999.90;999.90;;;4.70;99.90;;;;;;5072702;28;20437;-65
2022/11/22 11:37:55;;;;;;;1999.90;999.90;;;4.80;99.90;;;;;;5071676;28;20526;-64
2022/11/22 11:40:30;;;;;;;1999.90;999.90;;;4.80;99.90;;;;;;5073456;28;20449;-65
2022/11/22 11:43:18;;;;;;;1999.90;999.90;;;5.10;99.90;;;;;;5073014;28;20433;-65
2022/11/22 11:45:45;;;;;;;1999.90;999.90;;;5.10;99.90;;;;;;5072375;28;20441;-66
2022/11/22 11:48:29;;;;;;;1999.90;999.90;;;5.20;99.90;;;;;;5073123;28;20485;-65
2022/11/22 11:51:16;;;;;;;1999.90;999.90;;;5.20;99.90;;;;;;5071840;28;20473;-65
2022/11/22 11:53:54;;;;;;;1999.90;999.90;;;5.30;99.90;;;;;;5065298;28;20454;-65
2022/11/22 11:56:34;;;;;;;1999.90;999.90;;;5.40;99.90;;;;;;5066032;28;20492;-65
2022/11/22 11:59:10;;;;;;;1999.90;999.90;;;5.50;99.90;;;;;;5070135;28;20482;-65
2022/11/22 12:01:38;;;;;;;1999.90;999.90;;;5.50;99.90;;;;;;5070929;28;20464;-65
2022/11/22 12:04:15;;;;;;;1999.90;999.90;;;5.70;99.90;;;;;;5070938;28;20515;-65
2022/11/22 12:06:52;;;;;;;1999.90;999.90;;;6.00;99.90;;;;;;5068963;28;20458;-64
2022/11/22 12:09:29;;;;;;;1999.90;999.90;;;6.20;99.90;;;;;;5068731;28;20858;-65
2022/11/22 12:12:00;;;;;;;1999.90;999.90;;;6.00;99.90;;;;;;5073977;28;20474;-64
2022/11/22 12:14:28;;;;;;;1999.90;999.90;;;6.10;99.90;;;;;;5068103;28;20457;-63
2022/11/22 12:17:01;;;;;;;1999.90;999.90;;;6.20;99.90;;;;;;5066666;28;20549;-65
2022/11/22 12:19:36;;;;;;;1999.90;999.90;;;6.10;99.90;;;;;;5069169;28;20489;-64
2022/11/22 12:22:13;;;;;;;1999.90;999.90;;;6.10;99.90;;;;;;5070996;28;20468;-64
2022/11/22 12:24:45;;;;;;;1999.90;999.90;;;6.10;99.90;;;;;;5067833;28;20460;-64
2022/11/22 12:27:12;;;;;;;1999.90;999.90;;;6.00;99.90;;;;;;5072324;28;20465;-64
2022/11/22 12:29:43;;;;;;;1999.90;999.90;;;6.10;99.90;;;;;;5070498;28;20485;-64